createdAt,value
2023-02-16T00:01:47.836Z,2.90
2023-02-16T00:04:20.258Z,2.90
2023-02-16T00:06:50.494Z,2.90
2023-02-16T00:09:19.602Z,2.90
2023-02-16T00:12:06.271Z,2.90
2023-02-16T00:14:35.990Z,2.90
2023-02-16T00:17:04.594Z,2.90
2023-02-16T00:19:36.526Z,2.90
2023-02-16T00:22:07.790Z,2.80
2023-02-16T00:24:36.799Z,2.80
2023-02-16T00:27:10.220Z,2.80
2023-02-16T00:29:38.853Z,2.80
2023-02-16T00:32:07.284Z,2.80
2023-02-16T00:34:36.698Z,2.80
2023-02-16T00:37:08.854Z,2.80
2023-02-16T00:39:37.897Z,2.80
2023-02-16T00:42:07.805Z,2.80
2023-02-16T00:44:38.322Z,2.80
2023-02-16T00:47:18.797Z,2.80
2023-02-16T00:49:47.125Z,2.80
2023-02-16T00:52:35.427Z,2.80
2023-02-16T00:55:05.243Z,2.80
2023-02-16T00:57:36.913Z,2.80
2023-02-16T01:00:09.596Z,2.70
2023-02-16T01:02:37.648Z,2.70
2023-02-16T01:05:05.999Z,2.70
2023-02-16T01:07:52.776Z,2.70
2023-02-16T01:10:38.773Z,2.70
2023-02-16T01:13:07.067Z,2.70
2023-02-16T01:15:35.253Z,2.70
2023-02-16T01:18:03.428Z,2.70
2023-02-16T01:20:31.480Z,2.70
2023-02-16T01:23:00.834Z,2.70
2023-02-16T01:25:28.896Z,2.60
2023-02-16T01:27:57.052Z,2.60
2023-02-16T01:30:27.523Z,2.70
2023-02-16T01:32:56.116Z,2.60
2023-02-16T01:35:26.261Z,2.70
2023-02-16T01:37:54.214Z,2.70
2023-02-16T01:40:31.565Z,2.60
2023-02-16T01:43:05.129Z,2.60
2023-02-16T01:45:36.500Z,2.60
2023-02-16T01:48:07.201Z,2.60
2023-02-16T01:50:44.153Z,2.60
2023-02-16T01:53:22.173Z,2.60
2023-02-16T01:55:57.503Z,2.60
2023-02-16T01:58:36.644Z,2.60
2023-02-16T02:01:41.537Z,2.60
2023-02-16T02:04:35.551Z,2.60
2023-02-16T02:07:03.433Z,2.60
2023-02-16T02:09:40.106Z,2.60
2023-02-16T02:12:16.168Z,2.60
2023-02-16T02:14:44.099Z,2.60
2023-02-16T02:17:15.860Z,2.50
2023-02-16T02:19:55.736Z,2.60
2023-02-16T02:23:15.932Z,2.50
2023-02-16T02:26:09.645Z,2.50
2023-02-16T02:28:48.605Z,2.50
2023-02-16T02:31:30.043Z,2.50
2023-02-16T02:34:11.999Z,2.50
2023-02-16T02:36:46.671Z,2.50
2023-02-16T02:39:27.330Z,2.50
2023-02-16T02:42:06.212Z,2.50
2023-02-16T02:44:40.902Z,2.50
2023-02-16T02:47:09.371Z,2.50
2023-02-16T02:49:37.532Z,2.50
2023-02-16T02:52:05.997Z,2.50
2023-02-16T02:54:55.290Z,2.40
2023-02-16T02:58:01.514Z,2.40
2023-02-16T03:00:43.898Z,2.40
2023-02-16T03:03:16.526Z,2.40
2023-02-16T03:05:49.989Z,2.40
2023-02-16T03:08:21.254Z,2.40
2023-02-16T03:11:14.020Z,2.40
2023-02-16T03:13:45.522Z,2.40
2023-02-16T03:16:20.368Z,2.40
2023-02-16T03:19:06.327Z,2.40
2023-02-16T03:21:54.320Z,2.40
2023-02-16T03:24:43.824Z,2.40
2023-02-16T03:27:31.321Z,2.30
2023-02-16T03:30:01.068Z,2.30
2023-02-16T03:32:31.608Z,2.30
2023-02-16T03:34:59.490Z,2.30
2023-02-16T03:37:27.588Z,2.30
2023-02-16T03:40:12.905Z,2.30
2023-02-16T03:42:41.011Z,2.30
2023-02-16T03:45:10.039Z,2.30
2023-02-16T03:47:39.395Z,2.30
2023-02-16T03:50:08.967Z,2.30
2023-02-16T03:52:36.848Z,2.30
2023-02-16T03:55:05.010Z,2.20
2023-02-16T03:57:33.112Z,2.20
2023-02-16T04:00:01.481Z,2.30
2023-02-16T04:03:24.704Z,2.20
2023-02-16T04:06:48.029Z,2.20
2023-02-16T04:09:17.383Z,2.20
2023-02-16T04:12:03.095Z,2.20
2023-02-16T04:14:31.169Z,2.20
2023-02-16T04:16:59.326Z,2.20
2023-02-16T04:19:27.263Z,2.20
2023-02-16T04:21:55.108Z,2.20
2023-02-16T04:24:25.074Z,2.20
2023-02-16T04:26:52.957Z,2.20
2023-02-16T04:29:21.097Z,2.20
2023-02-16T04:31:49.809Z,2.20
2023-02-16T04:34:18.096Z,2.20
2023-02-16T04:36:46.027Z,2.20
2023-02-16T04:39:13.952Z,2.10
2023-02-16T04:41:43.535Z,2.10
2023-02-16T04:44:11.507Z,2.10
2023-02-16T04:46:39.447Z,2.10
2023-02-16T04:49:07.542Z,2.10
2023-02-16T04:51:35.753Z,2.10
2023-02-16T04:54:03.671Z,2.10
2023-02-16T04:56:31.646Z,2.10
2023-02-16T04:59:01.449Z,2.10
2023-02-16T05:01:30.084Z,2.10
2023-02-16T05:03:58.635Z,2.10
2023-02-16T05:06:26.877Z,2.10
2023-02-16T05:08:55.294Z,2.00
2023-02-16T05:11:40.400Z,2.00
2023-02-16T05:14:37.802Z,2.10
2023-02-16T05:17:06.122Z,2.00
2023-02-16T05:19:34.033Z,2.00
2023-02-16T05:22:02.387Z,2.00
2023-02-16T05:24:31.065Z,2.00
2023-02-16T05:26:59.206Z,2.00
2023-02-16T05:29:28.486Z,2.00
2023-02-16T05:31:56.775Z,2.00
2023-02-16T05:34:24.855Z,2.00
2023-02-16T05:36:53.461Z,2.00
2023-02-16T05:39:21.794Z,2.00
2023-02-16T05:41:49.922Z,2.00
2023-02-16T05:44:18.031Z,2.00
2023-02-16T05:46:47.645Z,1.90
2023-02-16T05:49:17.096Z,1.90
2023-02-16T05:51:45.476Z,1.90
2023-02-16T05:54:17.414Z,1.90
2023-02-16T05:56:46.290Z,1.90
2023-02-16T05:59:14.663Z,1.90
2023-02-16T06:01:42.976Z,1.90
2023-02-16T06:04:14.573Z,1.90
2023-02-16T06:06:44.158Z,1.90
2023-02-16T06:09:12.939Z,1.90
2023-02-16T06:11:40.908Z,1.90
2023-02-16T06:14:11.040Z,1.90
2023-02-16T06:16:43.263Z,1.90
2023-02-16T06:19:14.165Z,1.90
2023-02-16T06:21:42.193Z,1.90
2023-02-16T06:24:14.422Z,1.90
2023-02-16T06:26:42.812Z,1.90
2023-02-16T06:29:11.232Z,1.90
2023-02-16T06:31:39.570Z,1.90
2023-02-16T06:34:07.593Z,1.90
2023-02-16T06:36:37.113Z,1.90
2023-02-16T06:39:05.576Z,1.90
2023-02-16T06:41:35.883Z,1.90
2023-02-16T06:44:06.359Z,1.90
2023-02-16T06:46:34.910Z,1.90
2023-02-16T06:49:03.136Z,1.90
2023-02-16T06:51:47.144Z,1.90
2023-02-16T06:54:17.303Z,1.90
2023-02-16T06:56:45.688Z,1.90
2023-02-16T06:59:28.110Z,1.90
2023-02-16T07:01:56.215Z,1.90
2023-02-16T07:04:24.300Z,1.90
2023-02-16T07:06:52.218Z,1.90
2023-02-16T07:09:21.835Z,1.90
2023-02-16T07:11:49.760Z,1.90
2023-02-16T07:14:17.681Z,1.90
2023-02-16T07:16:45.689Z,1.90
2023-02-16T07:19:14.526Z,1.90
2023-02-16T07:21:43.401Z,1.90
2023-02-16T07:24:11.251Z,1.90
2023-02-16T07:26:40.866Z,1.90
2023-02-16T07:29:09.291Z,1.90
2023-02-16T07:31:37.536Z,1.90
2023-02-16T07:34:05.882Z,1.90
2023-02-16T07:36:34.097Z,1.90
2023-02-16T07:39:02.636Z,1.90
2023-02-16T07:41:30.613Z,1.90
2023-02-16T07:43:59.973Z,1.90
2023-02-16T07:46:28.166Z,1.90
2023-02-16T07:48:56.054Z,1.90
2023-02-16T07:51:25.187Z,1.90
2023-02-16T07:53:55.339Z,1.90
2023-02-16T07:56:25.662Z,1.90
2023-02-16T07:58:54.154Z,1.90
2023-02-16T08:01:23.948Z,2.00
2023-02-16T08:03:52.353Z,1.90
2023-02-16T08:06:20.874Z,1.90
2023-02-16T08:08:49.653Z,1.90
2023-02-16T08:11:19.354Z,1.90
2023-02-16T08:13:48.030Z,1.90
2023-02-16T08:16:19.499Z,1.90
2023-02-16T08:18:50.802Z,2.00
2023-02-16T08:21:20.523Z,1.90
2023-02-16T08:23:54.728Z,2.00
2023-02-16T08:26:24.476Z,2.00
2023-02-16T08:28:52.855Z,2.00
2023-02-16T08:31:23.096Z,2.00
2023-02-16T08:33:53.876Z,2.00
2023-02-16T08:36:24.705Z,2.00
2023-02-16T08:38:53.162Z,2.10
2023-02-16T08:41:22.839Z,2.00
2023-02-16T08:43:52.345Z,2.10
2023-02-16T08:46:20.667Z,2.10
2023-02-16T08:48:48.782Z,2.10
2023-02-16T08:51:20.507Z,2.10
2023-02-16T08:53:49.780Z,2.10
2023-02-16T08:56:18.038Z,2.10
2023-02-16T08:58:46.376Z,2.10
2023-02-16T09:01:16.712Z,2.10
2023-02-16T09:03:47.320Z,2.10
2023-02-16T09:06:20.391Z,2.10
2023-02-16T09:08:53.963Z,2.20
2023-02-16T09:11:22.827Z,2.20
2023-02-16T09:13:51.878Z,2.20
2023-02-16T09:16:22.350Z,2.20
2023-02-16T09:18:51.315Z,2.20
2023-02-16T09:21:24.605Z,2.30
2023-02-16T09:23:55.998Z,2.30
2023-02-16T09:26:25.448Z,2.30
2023-02-16T09:28:54.114Z,2.30
2023-02-16T09:31:27.217Z,2.40
2023-02-16T09:33:57.031Z,2.40
2023-02-16T09:36:27.261Z,2.40
2023-02-16T09:38:58.178Z,2.40
2023-02-16T09:41:35.773Z,2.50
2023-02-16T09:44:11.283Z,2.50
2023-02-16T09:46:40.054Z,2.50
2023-02-16T09:49:10.692Z,2.50
2023-02-16T09:51:42.541Z,2.60
2023-02-16T09:54:24.870Z,2.60
2023-02-16T09:56:58.195Z,2.60
2023-02-16T09:59:39.108Z,2.60
2023-02-16T10:02:27.013Z,2.70
2023-02-16T10:05:09.693Z,2.70
2023-02-16T10:07:45.202Z,2.70
2023-02-16T10:10:16.970Z,2.80
2023-02-16T10:12:51.859Z,2.70
2023-02-16T10:15:24.776Z,2.80
2023-02-16T10:18:00.055Z,2.80
2023-02-16T10:20:33.276Z,2.80
2023-02-16T10:23:11.746Z,2.90
2023-02-16T10:25:47.600Z,2.90
2023-02-16T10:28:19.151Z,2.90
2023-02-16T10:30:52.642Z,3.00
2023-02-16T10:33:31.921Z,3.00
2023-02-16T10:36:02.566Z,3.00
2023-02-16T10:38:40.124Z,3.00
2023-02-16T10:41:18.051Z,3.10
2023-02-16T10:43:51.720Z,3.10
2023-02-16T10:46:26.486Z,3.10
2023-02-16T10:48:55.642Z,3.20
2023-02-16T10:51:29.119Z,3.20
2023-02-16T10:54:02.187Z,3.20
2023-02-16T10:56:42.414Z,3.30
2023-02-16T10:59:18.445Z,3.30
2023-02-16T11:01:49.464Z,3.30
2023-02-16T11:04:37.773Z,3.40
2023-02-16T11:07:09.244Z,3.40
2023-02-16T11:09:39.692Z,3.40
2023-02-16T11:12:24.599Z,3.50
2023-02-16T11:14:55.875Z,3.50
2023-02-16T11:17:25.300Z,3.50
2023-02-16T11:19:56.321Z,3.60
2023-02-16T11:22:36.883Z,3.60
2023-02-16T11:25:27.292Z,3.60
2023-02-16T11:27:58.307Z,3.70
2023-02-16T11:30:34.776Z,3.70
2023-02-16T11:33:04.809Z,3.70
2023-02-16T11:35:41.822Z,3.80
2023-02-16T11:38:26.883Z,3.80
2023-02-16T11:40:57.741Z,3.80
2023-02-16T11:43:29.584Z,3.90
2023-02-16T11:46:04.121Z,3.90
2023-02-16T11:48:34.331Z,4.00
2023-02-16T11:51:05.106Z,4.00
2023-02-16T11:53:35.071Z,4.00
2023-02-16T11:56:27.121Z,4.00
2023-02-16T11:59:15.709Z,4.10
2023-02-16T12:02:04.572Z,4.10
2023-02-16T12:04:48.986Z,4.20
2023-02-16T12:07:27.340Z,4.20
2023-02-16T12:10:02.888Z,4.20
2023-02-16T12:12:42.523Z,4.30
2023-02-16T12:15:21.731Z,4.30
2023-02-16T12:18:04.501Z,4.30
2023-02-16T12:20:46.401Z,4.30
2023-02-16T12:23:27.024Z,4.40
2023-02-16T12:26:10.298Z,4.40
2023-02-16T12:28:49.556Z,4.40
2023-02-16T12:31:28.287Z,4.50
2023-02-16T12:34:08.015Z,4.50
2023-02-16T12:36:54.779Z,4.50
2023-02-16T12:39:32.248Z,4.60
2023-02-16T12:42:22.635Z,4.60
2023-02-16T12:44:55.277Z,4.60
2023-02-16T12:47:31.272Z,4.60
2023-02-16T12:50:03.447Z,4.70
2023-02-16T12:52:41.397Z,4.70
2023-02-16T12:55:20.696Z,4.70
2023-02-16T12:57:55.979Z,4.70
2023-02-16T13:00:35.068Z,4.80
2023-02-16T13:03:17.568Z,4.80
2023-02-16T13:05:52.406Z,4.80
2023-02-16T13:08:28.189Z,4.80
2023-02-16T13:11:01.281Z,4.80
2023-02-16T13:13:34.832Z,4.90
2023-02-16T13:16:17.543Z,4.90
2023-02-16T13:18:56.180Z,4.90
2023-02-16T13:21:51.174Z,5.00
2023-02-16T13:24:30.230Z,5.00
2023-02-16T13:27:05.555Z,5.00
2023-02-16T13:30:00.337Z,5.00
2023-02-16T13:32:48.576Z,5.00
2023-02-16T13:35:31.070Z,5.10
2023-02-16T13:38:11.300Z,5.10
2023-02-16T13:41:14.835Z,5.10
2023-02-16T13:43:45.636Z,5.10
2023-02-16T13:46:19.890Z,5.20
2023-02-16T13:48:53.639Z,5.20
2023-02-16T13:51:24.241Z,5.20
2023-02-16T13:53:55.789Z,5.20
2023-02-16T13:56:35.410Z,5.20
2023-02-16T13:59:42.235Z,5.30
2023-02-16T14:02:14.209Z,5.30
2023-02-16T14:05:11.992Z,5.30
2023-02-16T14:07:40.213Z,5.30
2023-02-16T14:10:15.381Z,5.30
2023-02-16T14:12:44.497Z,5.40
2023-02-16T14:15:20.755Z,5.40
2023-02-16T14:17:48.879Z,5.40
2023-02-16T14:20:31.777Z,5.40
2023-02-16T14:23:01.155Z,5.40
2023-02-16T14:25:38.899Z,5.50
2023-02-16T14:28:23.015Z,5.50
2023-02-16T14:30:54.381Z,5.50
2023-02-16T14:33:27.851Z,5.50
2023-02-16T14:36:14.637Z,5.50
2023-02-16T14:38:45.818Z,5.50
2023-02-16T14:41:25.074Z,5.50
2023-02-16T14:43:56.108Z,5.60
2023-02-16T14:46:38.024Z,5.60
2023-02-16T14:49:52.065Z,5.60
2023-02-16T14:52:40.200Z,5.60
2023-02-16T14:55:26.959Z,5.60
2023-02-16T14:58:00.733Z,5.60
2023-02-16T15:00:35.876Z,5.70
2023-02-16T15:03:07.133Z,5.70
2023-02-16T15:05:37.837Z,5.70
2023-02-16T15:08:17.342Z,5.70
2023-02-16T15:10:47.582Z,5.70
2023-02-16T15:13:21.227Z,5.70
2023-02-16T15:15:52.507Z,5.70
2023-02-16T15:18:23.933Z,5.80
2023-02-16T15:20:57.320Z,5.80
2023-02-16T15:23:29.268Z,5.80
2023-02-16T15:26:00.842Z,5.80
2023-02-16T15:28:30.992Z,5.80
2023-02-16T15:31:24.277Z,5.80
2023-02-16T15:33:57.215Z,5.80
2023-02-16T15:36:32.998Z,5.80
2023-02-16T15:39:04.344Z,5.90
2023-02-16T15:41:34.168Z,5.80
2023-02-16T15:44:03.908Z,5.80
2023-02-16T15:46:35.130Z,5.90
2023-02-16T15:49:12.498Z,5.80
2023-02-16T15:51:43.166Z,5.90
2023-02-16T15:54:22.833Z,5.90
2023-02-16T15:56:53.676Z,5.90
2023-02-16T15:59:35.390Z,5.90
2023-02-16T16:02:11.390Z,5.90
2023-02-16T16:04:41.306Z,5.90
2023-02-16T16:07:15.217Z,5.90
2023-02-16T16:09:46.261Z,5.90
2023-02-16T16:12:18.614Z,5.90
2023-02-16T16:14:52.082Z,5.90
2023-02-16T16:17:25.892Z,5.90
2023-02-16T16:19:54.599Z,5.90
2023-02-16T16:22:42.806Z,6.00
2023-02-16T16:25:30.894Z,5.90
2023-02-16T16:27:58.973Z,5.90
2023-02-16T16:30:30.100Z,5.90
2023-02-16T16:33:02.520Z,5.90
2023-02-16T16:35:41.415Z,6.00
2023-02-16T16:38:23.416Z,6.00
2023-02-16T16:40:54.456Z,6.00
2023-02-16T16:43:28.966Z,6.00
2023-02-16T16:46:11.317Z,5.90
2023-02-16T16:48:44.843Z,5.90
2023-02-16T16:51:15.093Z,5.90
2023-02-16T16:53:51.439Z,6.00
2023-02-16T16:56:22.313Z,6.00
2023-02-16T16:58:51.624Z,6.00
2023-02-16T17:01:21.223Z,6.00
2023-02-16T17:03:49.473Z,6.00
2023-02-16T17:06:18.410Z,6.00
2023-02-16T17:08:46.845Z,6.00
2023-02-16T17:11:22.964Z,6.00
2023-02-16T17:13:51.699Z,5.90
2023-02-16T17:16:24.212Z,6.00
2023-02-16T17:18:52.229Z,6.00
2023-02-16T17:21:21.259Z,6.00
2023-02-16T17:24:05.745Z,5.90
2023-02-16T17:26:35.516Z,6.00
2023-02-16T17:29:03.784Z,6.00
2023-02-16T17:31:31.794Z,6.00
2023-02-16T17:33:59.904Z,6.00
2023-02-16T17:36:29.109Z,6.00
2023-02-16T17:38:57.080Z,6.00
2023-02-16T17:41:28.161Z,6.00
2023-02-16T17:43:57.570Z,6.00
2023-02-16T17:46:26.708Z,6.00
2023-02-16T17:48:55.885Z,6.00
2023-02-16T17:51:26.709Z,6.00
2023-02-16T17:53:55.804Z,6.00
2023-02-16T17:56:24.858Z,6.00
2023-02-16T17:58:53.106Z,6.00
2023-02-16T18:01:23.381Z,6.00
2023-02-16T18:03:52.325Z,6.00
2023-02-16T18:06:22.274Z,6.00
2023-02-16T18:08:50.358Z,6.00
2023-02-16T18:11:18.574Z,6.00
2023-02-16T18:13:46.407Z,6.00
2023-02-16T18:16:16.146Z,6.00
2023-02-16T18:18:46.489Z,6.00
2023-02-16T18:21:14.872Z,6.00
2023-02-16T18:23:45.409Z,6.00
2023-02-16T18:26:15.257Z,6.00
2023-02-16T18:28:43.560Z,6.00
2023-02-16T18:31:11.839Z,6.00
2023-02-16T18:33:39.936Z,6.00
2023-02-16T18:36:10.034Z,6.00
2023-02-16T18:38:37.839Z,6.00
2023-02-16T18:41:05.886Z,6.00
2023-02-16T18:43:35.737Z,6.00
2023-02-16T18:46:06.875Z,6.00
2023-02-16T18:48:35.481Z,6.00
2023-02-16T18:51:05.195Z,6.00
2023-02-16T18:53:37.674Z,6.10
2023-02-16T18:56:06.462Z,6.10
2023-02-16T18:58:34.661Z,6.00
2023-02-16T19:01:02.619Z,6.00
2023-02-16T19:03:30.599Z,6.10
2023-02-16T19:05:58.696Z,6.00
2023-02-16T19:08:27.064Z,6.00
2023-02-16T19:10:56.547Z,6.10
2023-02-16T19:13:24.302Z,6.00
2023-02-16T19:15:52.228Z,6.00
2023-02-16T19:18:20.137Z,6.10
2023-02-16T19:20:47.925Z,6.10
2023-02-16T19:23:15.726Z,6.00
2023-02-16T19:25:43.898Z,6.10
2023-02-16T19:28:13.068Z,6.10
2023-02-16T19:30:41.097Z,6.10
2023-02-16T19:33:08.997Z,6.10
2023-02-16T19:35:38.884Z,6.00
2023-02-16T19:38:06.706Z,6.10
2023-02-16T19:40:34.573Z,6.00
2023-02-16T19:43:02.418Z,6.00
2023-02-16T19:45:31.899Z,6.00
2023-02-16T19:47:59.964Z,6.10
2023-02-16T19:50:28.020Z,6.10
2023-02-16T19:52:55.870Z,6.10
2023-02-16T19:55:23.713Z,6.10
2023-02-16T19:57:51.555Z,6.10
2023-02-16T20:00:19.847Z,6.10
2023-02-16T20:02:49.165Z,6.10
2023-02-16T20:05:17.335Z,6.10
2023-02-16T20:07:45.201Z,6.10
2023-02-16T20:10:12.984Z,6.10
2023-02-16T20:12:40.874Z,6.10
2023-02-16T20:15:09.632Z,6.10
2023-02-16T20:17:37.521Z,6.10
2023-02-16T20:20:08.054Z,6.10
2023-02-16T20:22:36.006Z,6.10
2023-02-16T20:25:03.879Z,6.10
2023-02-16T20:27:31.829Z,6.10
2023-02-16T20:30:00.534Z,6.10
2023-02-16T20:32:29.236Z,6.10
2023-02-16T20:34:57.211Z,6.10
2023-02-16T20:37:26.547Z,6.20
2023-02-16T20:39:54.633Z,6.10
2023-02-16T20:42:22.526Z,6.10
2023-02-16T20:44:50.618Z,6.20
2023-02-16T20:47:18.471Z,6.10
2023-02-16T20:49:46.503Z,6.20
2023-02-16T20:52:14.713Z,6.20
2023-02-16T20:54:44.204Z,6.10
2023-02-16T20:57:25.640Z,6.20
2023-02-16T20:59:54.550Z,6.10
2023-02-16T21:02:22.464Z,6.20
2023-02-16T21:04:50.632Z,6.20
2023-02-16T21:07:18.510Z,6.10
2023-02-16T21:09:47.747Z,6.10
2023-02-16T21:12:15.899Z,6.10
2023-02-16T21:14:43.950Z,6.10
2023-02-16T21:17:11.824Z,6.10
2023-02-16T21:19:40.603Z,6.10
2023-02-16T21:22:08.883Z,6.10
2023-02-16T21:24:40.536Z,6.10
2023-02-16T21:27:10.243Z,6.10
2023-02-16T21:29:39.666Z,6.10
2023-02-16T21:32:07.598Z,6.10
2023-02-16T21:34:36.344Z,6.10
2023-02-16T21:37:04.930Z,6.10
2023-02-16T21:40:01.835Z,6.10
2023-02-16T21:42:34.019Z,6.20
2023-02-16T21:45:13.988Z,6.10
2023-02-16T21:48:00.316Z,6.20
2023-02-16T21:50:28.852Z,6.20
2023-02-16T21:52:56.731Z,6.20
2023-02-16T21:55:42.445Z,6.20
2023-02-16T21:58:11.566Z,6.10
2023-02-16T22:00:39.760Z,6.20
2023-02-16T22:03:08.556Z,6.20
2023-02-16T22:05:37.174Z,6.20
2023-02-16T22:08:05.708Z,6.20
2023-02-16T22:10:34.881Z,6.20
2023-02-16T22:13:03.009Z,6.20
2023-02-16T22:15:32.735Z,6.20
2023-02-16T22:18:00.605Z,6.10
2023-02-16T22:20:28.486Z,6.20
2023-02-16T22:22:56.534Z,6.20
2023-02-16T22:25:24.424Z,6.20
2023-02-16T22:27:52.475Z,6.20
2023-02-16T22:30:20.935Z,6.20
2023-02-16T22:32:52.138Z,6.20
2023-02-16T22:35:20.070Z,6.20
2023-02-16T22:37:48.149Z,6.20
2023-02-16T22:40:16.719Z,6.20
2023-02-16T22:42:44.818Z,6.20
2023-02-16T22:45:12.858Z,6.20
2023-02-16T22:47:40.938Z,6.20
2023-02-16T22:50:11.661Z,6.20
2023-02-16T22:52:39.494Z,6.20
2023-02-16T22:55:08.550Z,6.20
2023-02-16T22:57:37.677Z,6.20
2023-02-16T23:00:09.020Z,6.20
2023-02-16T23:02:37.681Z,6.20
2023-02-16T23:05:05.645Z,6.20
2023-02-16T23:07:35.693Z,6.20
2023-02-16T23:10:03.995Z,6.20
2023-02-16T23:12:31.899Z,6.20
2023-02-16T23:14:59.971Z,6.20
2023-02-16T23:17:27.775Z,6.20
2023-02-16T23:19:55.646Z,6.20
2023-02-16T23:22:23.516Z,6.20
2023-02-16T23:25:13.642Z,6.20
2023-02-16T23:27:41.734Z,6.20
2023-02-16T23:30:10.530Z,6.20
2023-02-16T23:32:38.382Z,6.20
2023-02-16T23:35:07.216Z,6.20
2023-02-16T23:37:35.079Z,6.20
2023-02-16T23:40:04.622Z,6.20
2023-02-16T23:42:32.703Z,6.20
2023-02-16T23:45:00.616Z,6.30
2023-02-16T23:47:28.424Z,6.20
2023-02-16T23:49:56.504Z,6.20
2023-02-16T23:52:24.580Z,6.20
2023-02-16T23:54:52.645Z,6.30
2023-02-16T23:57:21.987Z,6.20
2023-02-16T23:59:49.837Z,6.20
